Time;durP1;ratioP1;P1;durP2;ratioP2;P2;SDS_P1;SDS_P2;PMS_P1;PMS_P2;Temp;Humidity;BMP_temperature;BMP_pressure;BME280_temperature;BME280_humidity;BME280_pressure;Samples;Min_cycle;Max_cycle;Signal;HPM_P1;HPM_P2
2021/06/28 00:00:29;;;;;;;10.52;8.68;;;;;;;18.10;84.14;99382.06;5031123;28;20540;-67
2021/06/28 00:02:54;;;;;;;10.93;9.00;;;;;;;18.07;84.43;99383.16;5031160;28;20487;-68
2021/06/28 00:05:19;;;;;;;12.68;11.35;;;;;;;18.05;84.03;99379.78;5030984;28;20064;-68
2021/06/28 00:07:46;;;;;;;7.60;6.88;;;;;;;18.06;84.28;99373.47;5030320;28;20516;-68
2021/06/28 00:10:14;;;;;;;9.05;8.18;;;;;;;18.08;83.94;99368.84;5031065;28;20128;-67
2021/06/28 00:12:40;;;;;;;6.93;6.30;;;;;;;18.10;83.68;99377.56;5030561;28;20485;-67
2021/06/28 00:15:10;;;;;;;15.90;14.20;;;;;;;18.08;83.78;99376.00;5030633;28;20044;-69
2021/06/28 00:17:35;;;;;;;10.23;9.18;;;;;;;18.01;84.30;99370.34;5030614;28;20111;-68
2021/06/28 00:20:01;;;;;;;12.10;10.82;;;;;;;17.98;84.03;99366.13;5029821;28;20069;-67
2021/06/28 00:22:26;;;;;;;11.10;9.23;;;;;;;17.95;84.59;99357.56;5030175;28;20030;-67
2021/06/28 00:24:51;;;;;;;9.30;8.40;;;;;;;17.96;84.20;99364.56;5030459;28;20033;-68
2021/06/28 00:27:17;;;;;;;9.43;8.52;;;;;;;17.95;83.92;99357.56;5030033;28;20033;-67
2021/06/28 00:29:42;;;;;;;8.10;7.18;;;;;;;17.91;83.44;99362.31;5030352;28;20493;-69
2021/06/28 00:32:08;;;;;;;7.28;6.43;;;;;;;17.87;83.40;99368.03;5030430;28;20072;-67
2021/06/28 00:34:33;;;;;;;12.23;8.38;;;;;;;17.86;83.32;99363.69;5031594;28;20111;-67
2021/06/28 00:36:58;;;;;;;13.60;10.50;;;;;;;17.85;83.51;99362.00;5030844;28;20037;-67
2021/06/28 00:39:24;;;;;;;10.13;8.20;;;;;;;17.84;84.14;99358.47;5030611;28;20481;-67
2021/06/28 00:41:49;;;;;;;13.75;9.05;;;;;;;17.80;83.84;99357.06;5012816;28;20038;-66
2021/06/28 00:44:15;;;;;;;7.93;6.70;;;;;;;17.81;84.46;99350.75;5012390;28;20025;-65
2021/06/28 00:46:41;;;;;;;9.45;7.55;;;;;;;17.80;84.04;99343.72;5030387;28;20525;-68
2021/06/28 00:49:06;;;;;;;10.23;7.28;;;;;;;17.82;84.10;99349.78;5030070;28;20112;-67
2021/06/28 00:51:31;;;;;;;10.68;7.15;;;;;;;17.84;83.84;99354.97;5029956;28;20035;-68
2021/06/28 00:53:57;;;;;;;8.90;6.53;;;;;;;17.85;83.75;99340.66;5030141;28;20175;-67
2021/06/28 00:56:23;;;;;;;6.97;6.05;;;;;;;17.86;83.73;99345.84;5029666;28;20033;-67
2021/06/28 00:58:48;;;;;;;8.38;7.30;;;;;;;17.87;83.67;99354.69;5029877;28;20099;-67
2021/06/28 01:01:15;;;;;;;12.45;11.25;;;;;;;17.85;83.63;99354.84;5000419;28;20041;-66
2021/06/28 01:03:41;;;;;;;8.65;7.38;;;;;;;17.81;83.69;99372.06;5006293;28;20040;-67
2021/06/28 01:06:10;;;;;;;11.98;10.65;;;;;;;17.77;84.15;99370.59;5029775;28;20044;-68
2021/06/28 01:08:35;;;;;;;7.35;6.65;;;;;;;17.77;84.07;99381.28;5029554;28;20539;-67
2021/06/28 01:11:02;;;;;;;11.40;6.85;;;;;;;17.79;84.21;99385.53;5029903;28;20041;-68
2021/06/28 01:13:30;;;;;;;9.30;8.10;;;;;;;17.82;83.78;99373.78;5029858;28;20029;-67
2021/06/28 01:15:55;;;;;;;10.95;8.75;;;;;;;17.84;84.04;99384.31;5030116;28;20457;-67
2021/06/28 01:18:21;;;;;;;10.55;7.45;;;;;;;17.81;83.87;99380.91;5029742;28;20026;-67
2021/06/28 01:20:46;;;;;;;10.40;8.60;;;;;;;17.82;84.14;99389.78;5029537;28;20745;-67
2021/06/28 01:23:22;;;;;;;12.20;9.98;;;;;;;17.82;84.25;99389.78;5029296;28;20061;-68
2021/06/28 01:25:53;;;;;;;14.38;10.57;;;;;;;17.80;84.11;99397.06;5029321;28;20045;-68
2021/06/28 01:28:20;;;;;;;11.18;9.18;;;;;;;17.75;84.51;99397.41;5029606;28;20049;-67
2021/06/28 01:30:46;;;;;;;10.80;7.60;;;;;;;17.73;84.51;99396.69;5028685;28;20052;-67
2021/06/28 01:33:12;;;;;;;8.32;6.28;;;;;;;17.72;84.72;99399.47;5029455;28;20041;-68
2021/06/28 01:35:39;;;;;;;9.90;8.82;;;;;;;17.68;84.30;99403.41;5029578;28;20198;-66
2021/06/28 01:38:04;;;;;;;11.95;9.38;;;;;;;17.68;84.52;99406.91;5029117;28;20033;-69
2021/06/28 01:40:30;;;;;;;10.15;9.05;;;;;;;17.68;84.32;99395.41;5029308;28;20033;-68
2021/06/28 01:42:55;;;;;;;11.20;9.55;;;;;;;17.68;84.89;99398.91;5012454;28;20022;-68
2021/06/28 01:45:22;;;;;;;11.80;9.20;;;;;;;17.70;84.52;99402.31;5029854;28;20061;-68
2021/06/28 01:47:49;;;;;;;12.35;10.38;;;;;;;17.68;84.73;99398.06;5011484;28;20037;-67
2021/06/28 01:50:15;;;;;;;10.35;9.13;;;;;;;17.66;84.48;99392.88;5011420;28;20120;-68
2021/06/28 01:52:41;;;;;;;9.23;7.95;;;;;;;17.65;84.19;99391.19;5029148;28;20056;-67
2021/06/28 01:55:10;;;;;;;10.35;9.20;;;;;;;17.64;84.22;99386.81;5029210;28;20438;-68
2021/06/28 01:57:41;;;;;;;17.77;12.30;;;;;;;17.64;84.31;99380.63;5029095;28;20088;-66
2021/06/28 02:00:07;;;;;;;8.10;7.22;;;;;;;17.62;84.28;99383.44;5029202;28;20029;-66
2021/06/28 02:02:32;;;;;;;11.98;10.75;;;;;;;17.63;84.24;99385.13;5029306;28;20044;-68
2021/06/28 02:04:58;;;;;;;10.38;8.77;;;;;;;17.59;84.26;99381.03;5011480;28;20485;-67
2021/06/28 02:07:24;;;;;;;12.43;9.82;;;;;;;17.60;84.61;99390.72;5028865;28;20438;-68
2021/06/28 02:09:50;;;;;;;14.90;11.98;;;;;;;17.56;84.53;99384.81;5011465;28;20068;-66
2021/06/28 02:12:16;;;;;;;17.67;11.55;;;;;;;17.53;84.15;99378.91;5029293;28;20049;-67
2021/06/28 02:14:41;;;;;;;11.00;9.68;;;;;;;17.53;84.33;99394.88;5029134;28;20101;-67
2021/06/28 02:17:07;;;;;;;9.95;8.85;;;;;;;17.48;84.28;99381.09;5028903;28;20052;-67
2021/06/28 02:19:32;;;;;;;11.15;9.95;;;;;;;17.44;84.32;99377.00;5028977;28;20083;-67
2021/06/28 02:21:58;;;;;;;15.07;12.13;;;;;;;17.43;84.55;99376.16;5028975;28;20072;-67
2021/06/28 02:24:24;;;;;;;10.52;9.50;;;;;;;17.38;84.85;99373.88;5029408;28;20033;-69
2021/06/28 02:26:49;;;;;;;13.52;11.45;;;;;;;17.35;84.70;99368.81;5010982;28;20065;-68
2021/06/28 02:29:15;;;;;;;13.60;11.70;;;;;;;17.33;84.96;99368.09;5029005;28;20079;-68
2021/06/28 02:31:42;;;;;;;11.15;9.95;;;;;;;17.31;84.68;99366.53;5028844;28;20037;-67
2021/06/28 02:34:07;;;;;;;11.05;9.93;;;;;;;17.29;84.67;99376.47;5028503;28;20374;-68
2021/06/28 02:36:32;;;;;;;9.30;8.40;;;;;;;17.27;84.46;99379.25;5028506;28;20032;-67
2021/06/28 02:38:59;;;;;;;12.88;11.55;;;;;;;17.27;84.48;99387.25;5028617;28;20033;-67
2021/06/28 02:41:24;;;;;;;10.30;8.52;;;;;;;17.24;84.38;99381.34;5028512;28;20136;-68
2021/06/28 02:43:51;;;;;;;13.63;11.00;;;;;;;17.21;84.56;99369.13;5032261;28;20548;-69
2021/06/28 02:46:18;;;;;;;9.45;8.45;;;;;;;17.16;84.61;99374.00;5032089;28;20169;-65
2021/06/28 02:48:43;;;;;;;11.10;7.38;;;;;;;17.15;84.70;99378.47;4997727;28;20036;-67
2021/06/28 02:51:11;;;;;;;12.32;11.05;;;;;;;17.14;84.18;99378.59;5032385;28;20037;-68
2021/06/28 02:53:39;;;;;;;10.57;8.88;;;;;;;17.11;85.05;99373.53;5032263;28;20033;-67
2021/06/28 02:56:14;;;;;;;9.85;8.90;;;;;;;17.06;84.71;99365.91;5011401;28;20110;-68
2021/06/28 02:58:46;;;;;;;11.43;10.23;;;;;;;17.05;84.67;99364.22;5031763;28;20507;-66
2021/06/28 03:01:13;;;;;;;10.90;9.80;;;;;;;17.05;84.53;99360.72;5032142;28;20034;-67
2021/06/28 03:03:39;;;;;;;10.65;9.63;;;;;;;17.04;84.60;99361.69;5031653;28;20052;-69
2021/06/28 03:06:05;;;;;;;11.57;9.90;;;;;;;17.01;84.27;99359.28;5032054;28;20396;-68
2021/06/28 03:08:30;;;;;;;7.93;7.13;;;;;;;16.99;84.07;99364.72;5013925;28;20495;-68
2021/06/28 03:10:57;;;;;;;7.82;6.50;;;;;;;16.98;84.10;99363.03;5032266;28;20057;-68
2021/06/28 03:13:22;;;;;;;8.93;7.85;;;;;;;16.94;84.44;99373.09;5031861;28;20033;-67
2021/06/28 03:15:48;;;;;;;9.80;8.82;;;;;;;16.92;84.22;99367.03;5032347;28;20059;-67
2021/06/28 03:18:13;;;;;;;9.93;8.88;;;;;;;16.90;84.29;99374.31;5014218;28;20080;-67
2021/06/28 03:20:38;;;;;;;10.38;8.85;;;;;;;16.87;84.21;99366.59;5032322;28;20507;-67
2021/06/28 03:23:04;;;;;;;11.80;10.68;;;;;;;16.83;84.94;99367.78;5032164;28;20116;-67
2021/06/28 03:25:30;;;;;;;10.60;9.50;;;;;;;16.82;84.47;99367.94;5014251;28;20197;-65
2021/06/28 03:27:55;;;;;;;10.98;8.68;;;;;;;16.83;84.49;99362.47;5032950;28;20053;-67
2021/06/28 03:30:21;;;;;;;12.18;10.93;;;;;;;16.82;84.55;99365.28;5032181;28;20851;-67
2021/06/28 03:32:46;;;;;;;12.80;10.15;;;;;;;16.84;84.80;99374.00;5032780;28;20041;-66
2021/06/28 03:35:13;;;;;;;12.45;10.02;;;;;;;16.81;84.61;99383.06;5032519;28;20515;-67
2021/06/28 03:37:39;;;;;;;12.02;10.07;;;;;;;16.81;84.42;99383.06;5031207;28;20029;-66
2021/06/28 03:40:06;;;;;;;12.57;9.18;;;;;;;16.78;84.48;99379.78;5031680;28;20048;-67
2021/06/28 03:42:32;;;;;;;10.10;9.07;;;;;;;16.75;84.76;99378.19;5031638;28;20052;-67
2021/06/28 03:44:58;;;;;;;11.27;9.52;;;;;;;16.75;84.53;99372.88;5032161;28;20045;-67
2021/06/28 03:47:23;;;;;;;12.10;10.85;;;;;;;16.77;84.60;99370.94;5032154;28;20103;-67
2021/06/28 03:49:48;;;;;;;14.52;9.95;;;;;;;16.78;84.37;99367.34;5031469;28;20124;-67
2021/06/28 03:52:14;;;;;;;14.48;9.32;;;;;;;16.75;84.44;99368.41;5013492;28;20571;-67
2021/06/28 03:54:39;;;;;;;11.63;8.68;;;;;;;16.75;84.44;99367.56;5031074;28;20057;-67
2021/06/28 03:57:05;;;;;;;10.13;9.00;;;;;;;16.76;84.60;99369.25;5030872;28;20041;-68
2021/06/28 03:59:30;;;;;;;12.30;10.52;;;;;;;16.78;85.07;99375.31;5031378;28;20083;-67
2021/06/28 04:01:55;;;;;;;9.88;8.43;;;;;;;16.81;84.50;99382.19;5031996;28;20048;-68
2021/06/28 04:04:21;;;;;;;11.70;9.77;;;;;;;16.83;84.44;99388.25;5034137;28;20068;-68
2021/06/28 04:06:46;;;;;;;11.48;8.98;;;;;;;16.84;84.56;99382.81;5033821;28;20049;-68
2021/06/28 04:09:11;;;;;;;7.70;6.90;;;;;;;16.87;84.37;99376.41;5033166;28;20034;-68
2021/06/28 04:11:37;;;;;;;13.93;11.45;;;;;;;16.90;83.93;99368.16;5031841;28;20033;-68
2021/06/28 04:14:02;;;;;;;13.50;9.25;;;;;;;16.94;84.09;99366.94;5031076;28;20030;-68
2021/06/28 04:16:28;;;;;;;9.75;8.82;;;;;;;16.99;84.10;99366.56;5030679;28;20539;-68
2021/06/28 04:18:53;;;;;;;9.00;7.80;;;;;;;17.02;84.04;99352.97;5030846;28;20080;-67
2021/06/28 04:21:19;;;;;;;11.55;9.63;;;;;;;17.06;83.50;99357.09;5030487;28;20038;-68
2021/06/28 04:23:44;;;;;;;11.57;9.57;;;;;;;17.10;84.17;99355.84;5029315;28;20033;-68
2021/06/28 04:26:10;;;;;;;8.15;7.30;;;;;;;17.15;84.19;99364.28;5012761;28;20033;-67
2021/06/28 04:28:36;;;;;;;9.73;8.73;;;;;;;17.21;83.72;99358.47;5030417;28;20512;-66
2021/06/28 04:31:03;;;;;;;10.57;9.38;;;;;;;17.25;83.69;99359.88;5029833;28;20049;-67
2021/06/28 04:33:28;;;;;;;11.43;10.32;;;;;;;17.28;83.43;99356.16;5030027;28;20030;-68
2021/06/28 04:35:54;;;;;;;13.60;12.13;;;;;;;17.32;83.66;99357.56;5030986;28;20117;-67
2021/06/28 04:38:19;;;;;;;11.13;10.02;;;;;;;17.33;84.00;99352.09;5030063;28;20041;-67
2021/06/28 04:40:46;;;;;;;11.70;10.27;;;;;;;17.39;83.47;99348.06;5029548;28;20397;-69
2021/06/28 04:43:12;;;;;;;10.20;8.68;;;;;;;17.47;84.13;99360.75;5029897;28;20086;-68
2021/06/28 04:45:37;;;;;;;11.88;9.38;;;;;;;17.52;84.16;99362.06;5030481;28;20532;-68
2021/06/28 04:48:03;;;;;;;13.38;11.65;;;;;;;17.58;83.80;99368.69;5029983;28;20040;-68
2021/06/28 04:50:28;;;;;;;14.05;11.80;;;;;;;17.64;84.21;99368.16;5030066;28;20033;-67
2021/06/28 04:52:56;;;;;;;10.52;9.43;;;;;;;17.70;84.12;99364.13;5030652;28;20073;-66
2021/06/28 04:55:23;;;;;;;10.60;9.50;;;;;;;17.75;83.96;99367.25;5029832;28;20065;-68
2021/06/28 04:57:49;;;;;;;11.18;9.98;;;;;;;17.83;84.03;99369.28;5029760;28;20033;-68
2021/06/28 05:00:17;;;;;;;14.50;12.52;;;;;;;17.87;84.34;99370.69;5030202;28;20061;-68
2021/06/28 05:02:43;;;;;;;10.82;9.52;;;;;;;17.90;84.06;99365.97;5029440;28;20112;-67
2021/06/28 05:05:10;;;;;;;12.23;10.93;;;;;;;17.98;83.83;99363.47;5029609;28;20520;-67
2021/06/28 05:07:35;;;;;;;13.57;11.98;;;;;;;18.05;83.71;99355.78;5029521;28;20042;-67
2021/06/28 05:10:00;;;;;;;13.95;12.55;;;;;;;18.14;83.82;99359.44;5029570;28;20037;-65
2021/06/28 05:12:26;;;;;;;13.45;12.05;;;;;;;18.26;83.78;99353.03;5012165;28;20039;-69
2021/06/28 05:14:51;;;;;;;10.52;9.52;;;;;;;18.35;83.50;99357.56;5011541;28;20117;-68
2021/06/28 05:17:16;;;;;;;9.75;8.57;;;;;;;18.48;83.08;99351.13;5029157;28;20481;-66
2021/06/28 05:19:42;;;;;;;14.52;9.40;;;;;;;18.66;82.70;99352.19;5029376;28;20551;-68
2021/06/28 05:22:07;;;;;;;11.02;9.48;;;;;;;18.84;82.63;99350.53;5029154;28;20038;-68
2021/06/28 05:24:33;;;;;;;10.32;9.35;;;;;;;18.92;82.10;99349.00;5029579;28;20033;-67
2021/06/28 05:26:59;;;;;;;10.30;8.88;;;;;;;18.96;81.85;99347.75;5029630;28;20091;-68
2021/06/28 05:29:25;;;;;;;11.25;10.15;;;;;;;19.01;82.06;99351.69;5029529;28;20053;-68
2021/06/28 05:31:50;;;;;;;10.75;9.32;;;;;;;19.10;82.32;99355.34;5029455;28;20477;-69
2021/06/28 05:34:16;;;;;;;9.27;8.30;;;;;;;19.12;81.93;99353.34;5028832;28;20073;-68
2021/06/28 05:36:41;;;;;;;11.15;9.95;;;;;;;19.16;81.72;99345.91;5011548;28;20032;-68
2021/06/28 05:39:07;;;;;;;11.50;9.88;;;;;;;19.19;81.91;99348.28;5028887;28;20048;-68
2021/06/28 05:41:32;;;;;;;11.88;9.10;;;;;;;19.24;81.56;99344.22;5028913;28;20495;-69
2021/06/28 05:43:57;;;;;;;13.02;8.45;;;;;;;19.30;81.36;99335.63;5029695;28;20041;-67
2021/06/28 05:46:24;;;;;;;8.93;8.02;;;;;;;19.38;81.46;99328.72;5029232;28;20405;-68
2021/06/28 05:48:49;;;;;;;11.38;9.68;;;;;;;19.44;80.70;99325.47;5010389;28;20044;-68
2021/06/28 05:51:18;;;;;;;11.70;8.63;;;;;;;19.51;80.96;99324.75;5029601;28;20041;-67
2021/06/28 05:53:43;;;;;;;13.02;9.57;;;;;;;19.59;80.01;99317.84;5028959;28;20043;-66
2021/06/28 05:56:10;;;;;;;9.43;8.35;;;;;;;19.67;80.21;99315.31;5029132;28;20041;-66
2021/06/28 05:58:35;;;;;;;17.13;11.18;;;;;;;19.77;80.10;99316.16;5011083;28;20033;-67
2021/06/28 06:01:01;;;;;;;10.10;8.18;;;;;;;19.84;79.88;99311.91;5029106;28;20037;-66
2021/06/28 06:03:27;;;;;;;10.82;9.60;;;;;;;20.00;79.17;99313.09;5029257;28;20369;-68
2021/06/28 06:05:53;;;;;;;9.45;8.13;;;;;;;20.12;78.84;99317.28;5029169;28;20107;-65
2021/06/28 06:08:25;;;;;;;12.25;10.63;;;;;;;20.25;77.62;99314.25;5028747;28;20034;-66
2021/06/28 06:10:53;;;;;;;16.63;10.45;;;;;;;20.38;76.98;99322.78;5011713;28;20049;-69
2021/06/28 06:13:19;;;;;;;11.10;10.00;;;;;;;20.56;77.14;99328.19;5028908;28;20045;-68
2021/06/28 06:15:45;;;;;;;11.68;9.43;;;;;;;20.74;77.38;99312.13;5028742;28;20029;-66
2021/06/28 06:18:11;;;;;;;25.20;22.63;;;;;;;20.95;75.92;99315.34;5031109;28;20108;-68
2021/06/28 06:20:36;;;;;;;18.25;16.35;;;;;;;21.26;75.48;99311.41;5032391;28;20044;-66
2021/06/28 06:23:02;;;;;;;12.90;10.77;;;;;;;21.60;73.57;99309.69;5032729;28;20065;-68
2021/06/28 06:25:27;;;;;;;11.55;10.07;;;;;;;21.69;73.57;99304.38;5033286;28;20080;-68
2021/06/28 06:27:52;;;;;;;12.40;9.98;;;;;;;21.60;73.70;99304.31;5014430;28;20025;-68
2021/06/28 06:30:18;;;;;;;15.60;13.45;;;;;;;21.61;73.23;99307.88;5032185;28;20121;-68
2021/06/28 06:32:44;;;;;;;14.20;11.35;;;;;;;21.72;73.72;99304.06;5032410;28;20117;-66
2021/06/28 06:35:09;;;;;;;15.60;12.27;;;;;;;21.86;73.40;99311.53;5032408;28;20053;-68
2021/06/28 06:37:35;;;;;;;16.38;12.45;;;;;;;22.00;72.53;99321.66;5031953;28;20042;-67
2021/06/28 06:40:00;;;;;;;11.65;10.27;;;;;;;22.29;71.48;99328.50;5032013;28;20041;-69
2021/06/28 06:42:26;;;;;;;13.43;10.27;;;;;;;22.58;70.72;99340.72;5032866;28;20045;-68
2021/06/28 06:44:51;;;;;;;11.55;10.30;;;;;;;22.67;70.12;99345.09;5031902;28;20450;-67
2021/06/28 06:47:16;;;;;;;15.05;13.52;;;;;;;22.92;68.59;99354.06;5031928;28;20033;-69
2021/06/28 06:49:42;;;;;;;16.30;14.60;;;;;;;23.18;68.60;99356.63;5032259;28;20489;-67
2021/06/28 06:52:08;;;;;;;14.00;12.50;;;;;;;23.42;67.73;99352.28;5014721;28;20072;-68
2021/06/28 06:54:33;;;;;;;20.40;11.15;;;;;;;23.53;66.74;99346.56;5033704;28;20033;-68
2021/06/28 06:56:59;;;;;;;26.45;12.23;;;;;;;23.56;66.76;99352.44;5032125;28;20045;-67
2021/06/28 06:59:24;;;;;;;10.20;9.20;;;;;;;23.51;67.26;99353.94;5015644;28;20033;-68
2021/06/28 07:01:50;;;;;;;11.10;9.32;;;;;;;23.46;66.75;99357.16;5033557;28;20030;-67
2021/06/28 07:04:15;;;;;;;12.60;10.40;;;;;;;23.36;67.51;99360.00;5032903;28;20112;-67
2021/06/28 07:06:41;;;;;;;11.20;8.30;;;;;;;23.30;68.45;99360.66;5014785;28;20030;-67
2021/06/28 07:09:07;;;;;;;22.63;13.75;;;;;;;23.24;68.78;99353.28;5032588;28;20029;-68
2021/06/28 07:11:32;;;;;;;13.20;9.27;;;;;;;23.20;68.63;99349.22;5032225;28;20032;-68
2021/06/28 07:13:59;;;;;;;11.13;9.70;;;;;;;23.15;67.64;99343.53;5033243;28;20037;-67
2021/06/28 07:16:30;;;;;;;11.23;8.68;;;;;;;23.08;67.69;99347.88;5032234;28;20030;-69
2021/06/28 07:18:55;;;;;;;11.52;8.90;;;;;;;23.08;67.77;99347.88;5032472;28;20113;-69
2021/06/28 07:21:21;;;;;;;19.55;12.32;;;;;;;23.14;69.01;99334.63;5031986;28;20038;-68
2021/06/28 07:23:48;;;;;;;17.40;10.90;;;;;;;23.18;69.30;99340.47;5031971;28;20033;-67
2021/06/28 07:26:14;;;;;;;14.40;9.38;;;;;;;23.20;67.77;99343.84;5032737;28;20037;-67
2021/06/28 07:28:39;;;;;;;11.20;8.35;;;;;;;23.25;67.05;99335.28;5030935;28;20037;-67
2021/06/28 07:31:04;;;;;;;9.95;8.95;;;;;;;23.53;66.35;99331.25;5032205;28;20037;-68
2021/06/28 07:33:31;;;;;;;9.82;8.82;;;;;;;23.84;65.36;99337.78;5032413;28;20039;-66
2021/06/28 07:35:58;;;;;;;16.42;10.07;;;;;;;23.82;66.15;99334.41;5032603;28;20083;-68
2021/06/28 07:38:25;;;;;;;11.25;9.73;;;;;;;23.82;65.34;99329.03;5032050;28;20053;-67
2021/06/28 07:40:50;;;;;;;13.45;9.95;;;;;;;24.21;65.38;99329.06;5031945;28;20029;-67
2021/06/28 07:43:18;;;;;;;16.08;10.70;;;;;;;24.76;63.29;99319.19;5031770;28;20037;-68
2021/06/28 07:45:47;;;;;;;13.60;11.65;;;;;;;25.39;60.99;99318.06;5030224;28;20409;-69
2021/06/28 07:48:12;;;;;;;11.38;10.13;;;;;;;25.69;60.65;99320.81;5030881;28;20087;-68
2021/06/28 07:50:37;;;;;;;13.13;10.10;;;;;;;26.01;59.08;99316.13;5030904;28;20120;-69
2021/06/28 07:53:03;;;;;;;12.10;10.23;;;;;;;25.98;59.06;99319.19;5031422;28;20049;-67
2021/06/28 07:55:28;;;;;;;13.95;11.10;;;;;;;25.60;59.44;99305.75;5031666;28;20030;-70
2021/06/28 07:57:53;;;;;;;12.60;11.23;;;;;;;25.32;60.18;99305.50;5013018;28;20026;-68
2021/06/28 08:00:19;;;;;;;12.05;10.38;;;;;;;25.24;60.78;99328.00;5030748;28;20069;-66
2021/06/28 08:02:46;;;;;;;11.52;10.48;;;;;;;25.02;61.91;99349.38;5030880;28;20029;-66
2021/06/28 08:05:13;;;;;;;14.88;11.65;;;;;;;24.81;61.18;99347.31;5030586;28;20034;-67
2021/06/28 08:07:38;;;;;;;11.10;9.85;;;;;;;24.65;62.69;99355.50;5029863;28;20567;-71
2021/06/28 08:10:06;;;;;;;17.92;12.95;;;;;;;24.54;63.37;99358.56;5030599;28;20136;-75
2021/06/28 08:12:31;;;;;;;11.38;9.75;;;;;;;24.42;63.84;99355.44;5005744;28;20037;-75
2021/06/28 08:14:58;;;;;;;14.43;9.85;;;;;;;24.38;63.75;99344.13;5031549;28;20072;-75
2021/06/28 08:17:23;;;;;;;21.33;11.40;;;;;;;24.37;63.77;99345.16;5030058;28;20095;-75
2021/06/28 08:19:49;;;;;;;15.10;11.45;;;;;;;24.36;63.65;99343.47;5030977;28;20049;-76
2021/06/28 08:22:15;;;;;;;16.52;10.32;;;;;;;24.37;63.72;99336.25;5030978;28;20041;-74
2021/06/28 08:24:41;;;;;;;14.82;10.40;;;;;;;24.31;63.43;99327.00;5032151;28;20477;-77
2021/06/28 08:27:06;;;;;;;11.07;9.23;;;;;;;24.39;63.20;99326.97;5014405;28;20116;-76
2021/06/28 08:29:32;;;;;;;13.00;9.52;;;;;;;24.54;63.38;99321.72;5022923;28;20051;-77
2021/06/28 08:31:57;;;;;;;9.75;8.73;;;;;;;24.64;62.94;99319.63;4996740;28;20048;-75
2021/06/28 08:34:23;;;;;;;13.38;11.32;;;;;;;24.75;62.38;99334.53;5024693;28;20099;-75
2021/06/28 08:36:49;;;;;;;17.83;10.77;;;;;;;24.78;62.36;99339.56;5019235;28;20041;-74
2021/06/28 08:39:16;;;;;;;13.27;9.75;;;;;;;24.71;62.54;99345.84;5025078;28;20037;-74
2021/06/28 08:41:44;;;;;;;12.13;9.82;;;;;;;24.67;62.86;99358.03;5026400;28;20493;-76
2021/06/28 08:44:12;;;;;;;8.77;7.88;;;;;;;24.64;63.06;99354.66;5008152;28;20484;-74
2021/06/28 08:46:38;;;;;;;12.13;10.88;;;;;;;24.55;62.90;99363.81;5017489;28;20117;-74
2021/06/28 08:49:04;;;;;;;12.35;10.82;;;;;;;24.43;63.87;99375.97;5024844;28;20095;-74
2021/06/28 08:51:30;;;;;;;12.60;9.85;;;;;;;24.33;63.29;99373.47;5025522;28;20041;-74
2021/06/28 08:53:56;;;;;;;10.75;8.95;;;;;;;24.27;64.43;99376.00;5024580;28;20684;-75
2021/06/28 08:56:22;;;;;;;12.43;11.13;;;;;;;24.16;65.69;99377.22;5005793;28;20485;-74
2021/06/28 08:58:47;;;;;;;12.05;10.25;;;;;;;24.09;65.62;99373.53;5024405;28;20048;-77
2021/06/28 09:01:13;;;;;;;13.80;9.98;;;;;;;24.05;65.96;99370.38;5023790;28;20037;-75
2021/06/28 09:03:38;;;;;;;13.40;10.45;;;;;;;23.94;66.61;99371.56;5006806;28;20038;-74
2021/06/28 09:06:06;;;;;;;9.23;7.13;;;;;;;23.86;63.76;99371.59;5024543;28;20739;-76
2021/06/28 09:08:36;;;;;;;7.82;6.90;;;;;;;23.78;63.92;99371.63;5006192;28;20066;-76
2021/06/28 09:11:03;;;;;;;8.52;5.80;;;;;;;23.70;62.58;99377.81;5023934;28;20607;-75
2021/06/28 09:13:43;;;;;;;9.27;6.60;;;;;;;23.63;63.86;99379.50;5025110;28;20412;-74
2021/06/28 09:16:14;;;;;;;8.35;5.40;;;;;;;23.53;63.92;99393.13;5024251;28;20848;-76
2021/06/28 09:18:57;;;;;;;8.73;5.88;;;;;;;23.40;64.71;99411.59;5005253;28;20037;-75
2021/06/28 09:21:29;;;;;;;9.32;5.65;;;;;;;23.25;66.52;99414.13;5006015;28;20048;-74
2021/06/28 09:23:56;;;;;;;6.25;5.65;;;;;;;23.11;66.92;99431.75;5023383;28;20040;-76
2021/06/28 09:26:27;;;;;;;12.35;6.38;;;;;;;22.97;69.19;99448.50;5023243;28;20091;-74
2021/06/28 09:28:55;;;;;;;10.07;6.65;;;;;;;22.83;69.33;99452.63;5022607;28;20043;-74
2021/06/28 09:31:35;;;;;;;10.88;6.93;;;;;;;22.60;70.14;99449.69;5022981;28;20041;-74
2021/06/28 09:34:04;;;;;;;9.80;5.82;;;;;;;22.38;70.45;99432.31;5006311;28;20041;-74
2021/06/28 09:36:29;;;;;;;6.53;5.50;;;;;;;22.05;71.64;99429.41;5015829;28;20128;-75
2021/06/28 09:38:55;;;;;;;8.38;7.57;;;;;;;21.81;72.46;99442.66;5023605;28;20132;-72
2021/06/28 09:41:23;;;;;;;7.82;5.90;;;;;;;21.77;73.44;99452.00;5023715;28;20067;-73
2021/06/28 09:43:50;;;;;;;10.52;7.30;;;;;;;21.69;74.68;99427.81;5005688;28;20055;-74
2021/06/28 09:46:21;;;;;;;6.82;6.10;;;;;;;21.93;73.67;99411.00;5023444;28;20639;-73
2021/06/28 09:48:52;;;;;;;8.15;6.43;;;;;;;22.04;73.92;99424.19;5005761;28;20048;-75
2021/06/28 09:51:22;;;;;;;9.77;6.60;;;;;;;22.33;71.99;99409.63;5025481;28;20060;-72
2021/06/28 09:53:49;;;;;;;6.15;5.35;;;;;;;22.40;71.43;99410.66;5011917;28;20045;-73
2021/06/28 09:56:36;;;;;;;6.43;5.70;;;;;;;22.57;70.96;99409.72;5029947;28;20048;-74
2021/06/28 09:59:35;;;;;;;7.13;5.60;;;;;;;22.74;70.14;99405.22;5012093;28;20049;-74
2021/06/28 10:02:20;;;;;;;7.60;5.57;;;;;;;23.01;70.44;99400.63;5033204;28;20045;-75
2021/06/28 10:05:01;;;;;;;7.35;5.85;;;;;;;23.19;69.21;99398.66;5033454;28;20045;-73
2021/06/28 10:07:37;;;;;;;6.90;6.20;;;;;;;23.55;67.91;99380.34;5033502;28;20041;-73
2021/06/28 10:10:12;;;;;;;5.85;5.20;;;;;;;23.95;65.75;99388.59;5033638;28;20046;-74
2021/06/28 10:12:59;;;;;;;5.97;5.32;;;;;;;24.10;63.45;99394.09;5035537;28;20072;-74
2021/06/28 10:15:30;;;;;;;5.82;5.22;;;;;;;24.57;62.94;99390.59;5035455;28;20041;-72
2021/06/28 10:17:56;;;;;;;5.97;5.10;;;;;;;25.00;61.55;99402.63;5036769;28;20497;-74
2021/06/28 10:20:25;;;;;;;7.07;4.20;;;;;;;25.21;60.04;99390.41;5033262;28;20044;-73
2021/06/28 10:22:52;;;;;;;5.15;4.20;;;;;;;25.38;59.26;99391.13;5018569;28;20564;-72
2021/06/28 10:25:20;;;;;;;5.05;3.78;;;;;;;25.40;58.14;99386.38;5034824;28;20036;-74
2021/06/28 10:27:46;;;;;;;5.13;4.07;;;;;;;25.72;59.84;99382.56;5034588;28;20037;-72
2021/06/28 10:30:15;;;;;;;5.97;3.75;;;;;;;26.21;56.70;99383.94;5034142;28;20536;-73
2021/06/28 10:32:43;;;;;;;5.97;3.70;;;;;;;26.69;56.96;99381.69;5026717;28;20040;-73
2021/06/28 10:35:12;;;;;;;3.90;2.83;;;;;;;26.96;53.79;99382.84;5037027;28;20052;-74
2021/06/28 10:37:42;;;;;;;3.22;2.92;;;;;;;27.83;52.49;99376.38;5031894;28;20125;-75
2021/06/28 10:40:16;;;;;;;4.38;3.58;;;;;;;28.73;49.09;99379.22;5014604;28;20037;-75
2021/06/28 10:42:46;;;;;;;4.03;2.60;;;;;;;29.18;46.30;99371.41;5046208;28;20562;-74
2021/06/28 10:45:14;;;;;;;5.57;2.60;;;;;;;29.14;47.72;99375.56;5032058;28;20128;-75
2021/06/28 10:47:41;;;;;;;3.08;2.45;;;;;;;29.95;46.12;99372.69;5049555;28;20086;-75
2021/06/28 10:50:08;;;;;;;3.65;2.47;;;;;;;30.31;44.74;99364.06;5050001;28;20033;-73
2021/06/28 10:52:37;;;;;;;3.13;2.38;;;;;;;30.52;44.52;99362.94;5050561;28;20041;-74
2021/06/28 10:55:28;;;;;;;3.45;2.30;;;;;;;30.68;44.03;99356.16;5031170;28;20107;-73
2021/06/28 10:57:54;;;;;;;3.80;2.45;;;;;;;30.86;44.08;99349.19;5030425;28;20133;-76
2021/06/28 11:00:52;;;;;;;2.95;2.30;;;;;;;31.13;42.98;99350.69;5031278;28;20127;-75
2021/06/28 11:03:23;;;;;;;2.55;2.25;;;;;;;30.72;44.18;99348.41;5046659;28;20037;-76
2021/06/28 11:06:14;;;;;;;3.20;2.72;;;;;;;30.10;44.54;99337.97;5046422;28;20128;-75
2021/06/28 11:08:58;;;;;;;4.30;1.98;;;;;;;29.29;46.72;99343.66;5045664;28;20118;-76
2021/06/28 11:11:43;;;;;;;3.10;2.00;;;;;;;28.51;48.39;99344.06;5045766;28;20120;-79
2021/06/28 11:14:17;;;;;;;3.80;2.10;;;;;;;27.97;49.43;99351.06;5046259;28;20041;-75
2021/06/28 11:16:53;;;;;;;;;;;;;;;27.71;49.42;99348.13;5046250;28;20032;-75
2021/06/28 11:19:51;;;;;;;5.70;2.05;;;;;;;27.42;52.27;99347.31;5046971;28;19924;-76
2021/06/28 11:22:40;;;;;;;3.30;2.45;;;;;;;26.95;50.52;99346.84;5029622;28;20036;-75
2021/06/28 11:25:09;;;;;;;3.45;2.33;;;;;;;26.93;50.38;99331.81;5030522;28;20076;-75
2021/06/28 11:27:42;;;;;;;4.03;2.75;;;;;;;26.89;51.13;99338.63;5025748;28;20052;-74